Accueil
METAR-TAF:

METAR-TAF

Aéroports :

Emporia-Greensville Regional Airport

Emporia, Virginie, États-Unis

latitude: 36-41-13N, longitude: 077-28-58W, altitude: 39 m

Observation

Le bulletin a été fait il y a 26 minutes, à 21:55 UTC
Vent 6 kt de ouest/nord-ouest
Température 11°C
Humidité 43%
Pression 1020 hPa
Ciel clair

METAR: KEMV 202155Z AUTO 30006KT CLR 11/M01 A3013 RMK AO2 T01081008

Heure: 17:21 (22:21 UTC)


TAF: absent

Observations et prévisions météorologiques de plus de 4000 aéroports (messages METAR et TAF).

Les stations disponibles sont représentées par des disques jaunes et rouges sur la carte.

Passer la souris dessus pour voir le nom de la station.

Cliquer dessus pour voir les observations et prévisions météorologiques.

Pour changer de carte: cliquez sur les boutons verts avec une croix noire pour zoomer, sur le bouton vert avec un tiret pour effectuer un zoom arrière, ou sur les flèches vertes pour les cartes adjacentes.


METAR-TAF: